Time;durP1;ratioP1;P1;durP2;ratioP2;P2;SDS_P1;SDS_P2;PMS_P1;PMS_P2;Temp;Humidity;BMP_temperature;BMP_pressure;BME280_temperature;BME280_humidity;BME280_pressure;Samples;Min_cycle;Max_cycle;Signal;HPM_P1;HPM_P2
2022/06/03 00:00:21;;;;;;;7.72;1.73;;;25.10;99.90;;;;;;4992394;28;20042;-54
2022/06/03 00:03:11;;;;;;;5.25;2.05;;;25.20;99.90;;;;;;4991894;28;20034;-55
2022/06/03 00:05:55;;;;;;;8.18;1.58;;;25.20;99.90;;;;;;4992072;28;20471;-53
2022/06/03 00:08:45;;;;;;;9.65;1.73;;;25.20;99.90;;;;;;4980301;28;20037;-53
2022/06/03 00:11:13;;;;;;;5.40;1.45;;;25.20;99.90;;;;;;4991722;28;20066;-53
2022/06/03 00:14:01;;;;;;;13.18;2.08;;;25.10;99.90;;;;;;4991968;28;20084;-53
2022/06/03 00:16:45;;;;;;;;;;;25.00;99.90;;;;;;4991927;28;20386;-53
2022/06/03 00:19:41;;;;;;;7.60;2.22;;;24.90;99.90;;;;;;4991914;28;20263;-53
2022/06/03 00:22:18;;;;;;;6.93;1.45;;;24.80;99.90;;;;;;4991721;28;20475;-53
2022/06/03 00:25:13;;;;;;;5.43;2.08;;;24.70;99.90;;;;;;4991663;28;20406;-54
2022/06/03 00:27:54;;;;;;;6.18;1.23;;;24.70;99.90;;;;;;4991752;28;20141;-54
2022/06/03 00:30:41;;;;;;;4.93;1.88;;;24.60;99.90;;;;;;4991713;28;20026;-53
2022/06/03 00:33:22;;;;;;;8.38;1.85;;;24.60;99.90;;;;;;4979650;28;20137;-54
2022/06/03 00:35:58;;;;;;;6.03;1.45;;;24.70;99.90;;;;;;4991487;28;20026;-53
2022/06/03 00:38:50;;;;;;;5.68;1.40;;;24.70;99.90;;;;;;4979003;28;20065;-54
2022/06/03 00:41:40;;;;;;;3.58;1.35;;;24.70;99.90;;;;;;4994519;28;20117;-54
2022/06/03 00:44:17;;;;;;;8.45;1.45;;;24.70;99.90;;;;;;4995576;28;20153;-54
2022/06/03 00:47:05;;;;;;;5.05;1.42;;;24.80;99.90;;;;;;4995282;28;20108;-54
2022/06/03 00:49:48;;;;;;;6.63;1.88;;;24.80;99.90;;;;;;4995408;28;20100;-53
2022/06/03 00:52:20;;;;;;;8.00;1.80;;;24.80;99.90;;;;;;4995176;28;20430;-55
2022/06/03 00:55:01;;;;;;;4.05;1.60;;;24.70;99.90;;;;;;4995241;28;20066;-54
2022/06/03 00:57:53;;;;;;;8.07;2.08;;;24.70;99.90;;;;;;4995067;28;20034;-53
2022/06/03 01:00:48;;;;;;;6.65;1.80;;;24.70;99.90;;;;;;5007122;23;20055;-57
2022/06/03 01:03:39;;;;;;;4.85;1.60;;;24.60;99.90;;;;;;4958044;28;20297;-57
2022/06/03 01:06:36;;;;;;;8.23;1.83;;;24.50;99.90;;;;;;4958078;28;20371;-58
2022/06/03 01:09:20;;;;;;;9.43;1.80;;;24.50;99.90;;;;;;4985005;28;20105;-59
2022/06/03 01:12:16;;;;;;;5.80;1.52;;;24.40;99.90;;;;;;4994940;28;20034;-59
2022/06/03 01:15:12;;;;;;;4.53;1.38;;;24.30;99.90;;;;;;4994941;28;20026;-59
2022/06/03 01:17:50;;;;;;;4.70;1.55;;;24.20;99.90;;;;;;4994860;28;20026;-58
2022/06/03 01:20:43;;;;;;;5.07;1.50;;;24.10;99.90;;;;;;4994641;28;20022;-59
2022/06/03 01:23:42;;;;;;;5.65;1.83;;;24.10;99.90;;;;;;4994008;28;20065;-59
2022/06/03 01:26:32;;;;;;;4.50;1.50;;;24.10;99.90;;;;;;4994822;28;20521;-59
2022/06/03 01:29:35;;;;;;;9.52;1.80;;;24.10;99.90;;;;;;4994568;28;20026;-59
2022/06/03 01:32:27;;;;;;;5.18;1.33;;;24.10;99.90;;;;;;4994405;28;20041;-59
2022/06/03 01:35:12;;;;;;;8.25;1.90;;;24.10;99.90;;;;;;4980569;28;20058;-59
2022/06/03 01:37:49;;;;;;;7.90;2.75;;;24.20;99.90;;;;;;4994383;28;20094;-59
2022/06/03 01:40:47;;;;;;;6.90;1.65;;;24.30;99.90;;;;;;4994601;28;20015;-59
2022/06/03 01:43:25;;;;;;;9.55;1.60;;;24.30;99.90;;;;;;4994382;28;20058;-59
2022/06/03 01:46:06;;;;;;;7.75;1.90;;;24.30;99.90;;;;;;4994351;28;20026;-59
2022/06/03 01:49:02;;;;;;;6.53;1.42;;;24.30;99.90;;;;;;4994072;28;20022;-59
2022/06/03 01:51:52;;;;;;;10.23;2.50;;;24.30;99.90;;;;;;4993774;28;20088;-58
2022/06/03 01:54:27;;;;;;;18.20;2.00;;;24.30;99.90;;;;;;4980677;28;20076;-59
2022/06/03 01:57:13;;;;;;;7.78;1.90;;;24.30;99.90;;;;;;4993946;28;20034;-57
2022/06/03 02:00:07;;;;;;;8.45;1.60;;;24.30;99.90;;;;;;4981210;28;20065;-58
2022/06/03 02:02:44;;;;;;;6.93;1.67;;;24.30;99.90;;;;;;4993778;28;20027;-58
2022/06/03 02:05:55;;;;;;;10.52;2.35;;;24.20;99.90;;;;;;4993785;28;20042;-58
2022/06/03 02:09:03;;;;;;;7.97;2.60;;;24.30;99.90;;;;;;4924957;28;20064;-57
2022/06/03 02:11:44;;;;;;;9.30;1.65;;;24.30;99.90;;;;;;4981444;28;20104;-57
2022/06/03 02:14:19;;;;;;;11.55;1.98;;;24.20;99.90;;;;;;4993653;28;20088;-57
2022/06/03 02:17:20;;;;;;;6.88;1.92;;;24.20;99.90;;;;;;4993617;28;20065;-57
2022/06/03 02:20:00;;;;;;;11.50;1.67;;;24.10;99.90;;;;;;4989843;28;20038;-57
2022/06/03 02:22:32;;;;;;;11.07;2.35;;;24.10;99.90;;;;;;4993672;28;20471;-57
2022/06/03 02:25:14;;;;;;;5.68;1.75;;;24.10;99.90;;;;;;4993569;28;20066;-57
2022/06/03 02:28:16;;;;;;;8.32;1.90;;;24.00;99.90;;;;;;4981830;28;20057;-57
2022/06/03 02:30:54;;;;;;;7.93;1.83;;;24.00;99.90;;;;;;4993158;28;20360;-57
2022/06/03 02:33:38;;;;;;;;;;;24.10;99.90;;;;;;4993760;28;20030;-57
2022/06/03 02:36:16;;;;;;;8.88;2.25;;;24.00;99.90;;;;;;4993178;28;19914;-57
2022/06/03 02:39:06;;;;;;;11.02;1.95;;;24.00;99.90;;;;;;4993267;28;20054;-57
2022/06/03 02:41:51;;;;;;;11.70;2.45;;;24.00;99.90;;;;;;4993212;28;20284;-57
2022/06/03 02:44:30;;;;;;;7.03;1.60;;;24.00;99.90;;;;;;4994127;28;20026;-56
2022/06/03 02:47:37;;;;;;;6.07;1.33;;;24.00;99.90;;;;;;4979902;28;20022;-56
2022/06/03 02:50:13;;;;;;;5.22;1.40;;;24.00;99.90;;;;;;4985014;28;20058;-56
2022/06/03 02:52:59;;;;;;;4.60;1.60;;;24.00;99.90;;;;;;4992995;28;20090;-57
2022/06/03 02:55:49;;;;;;;9.55;1.77;;;24.00;99.90;;;;;;4992762;28;20022;-59
2022/06/03 02:58:30;;;;;;;6.05;1.48;;;24.00;99.90;;;;;;4992955;28;20062;-58
2022/06/03 03:01:24;;;;;;;4.75;1.35;;;24.00;99.90;;;;;;5004644;23;20057;-50
2022/06/03 03:04:08;;;;;;;7.97;2.00;;;24.00;99.90;;;;;;4992271;28;20078;-51
2022/06/03 03:06:41;;;;;;;5.95;1.98;;;23.90;99.90;;;;;;4992755;28;20023;-50
2022/06/03 03:09:34;;;;;;;4.97;2.15;;;24.00;99.90;;;;;;4992706;28;20026;-51
2022/06/03 03:12:29;;;;;;;4.68;1.95;;;23.90;99.90;;;;;;4982734;28;20482;-51
2022/06/03 03:15:09;;;;;;;4.75;1.73;;;23.90;99.90;;;;;;4992429;28;20035;-51
2022/06/03 03:18:06;;;;;;;4.78;1.70;;;23.90;99.90;;;;;;4992653;28;20030;-50
2022/06/03 03:21:09;;;;;;;8.25;1.33;;;23.80;99.90;;;;;;4992570;28;20097;-51
2022/06/03 03:24:20;;;;;;;7.40;1.77;;;23.80;99.90;;;;;;4992378;28;20033;-51
2022/06/03 03:27:23;;;;;;;4.75;1.80;;;23.80;99.90;;;;;;4981917;28;20045;-51
2022/06/03 03:30:17;;;;;;;4.35;1.30;;;23.80;99.90;;;;;;4980473;28;20483;-51
2022/06/03 03:33:07;;;;;;;6.43;2.03;;;23.80;99.90;;;;;;4992155;28;20058;-51
2022/06/03 03:35:58;;;;;;;7.28;2.05;;;23.80;99.90;;;;;;4992264;28;20077;-51
2022/06/03 03:38:56;;;;;;;8.07;1.70;;;23.80;99.90;;;;;;4979155;28;20482;-51
2022/06/03 03:42:02;;;;;;;5.70;1.52;;;23.80;99.90;;;;;;4991120;28;20053;-51
2022/06/03 03:45:07;;;;;;;3.50;1.37;;;23.80;99.90;;;;;;4943851;28;20066;-51
2022/06/03 03:47:45;;;;;;;4.47;1.17;;;23.80;99.90;;;;;;4980996;28;20066;-52
2022/06/03 03:50:39;;;;;;;5.55;1.83;;;23.80;99.90;;;;;;4991920;28;20026;-51
2022/06/03 03:53:20;;;;;;;4.78;0.90;;;23.80;99.90;;;;;;4992087;28;20022;-51
2022/06/03 03:56:04;;;;;;;5.47;1.10;;;23.80;99.90;;;;;;4984964;28;20034;-51
2022/06/03 03:59:09;;;;;;;7.10;1.90;;;23.80;99.90;;;;;;4990818;28;20034;-51
2022/06/03 04:02:26;;;;;;;10.95;1.70;;;23.80;99.90;;;;;;4996065;23;20055;-54
2022/06/03 04:05:31;;;;;;;4.82;1.20;;;23.80;99.90;;;;;;4965794;28;20050;-54
2022/06/03 04:08:24;;;;;;;7.15;1.50;;;23.70;99.90;;;;;;4983163;28;20038;-54
2022/06/03 04:11:12;;;;;;;7.40;1.77;;;23.60;99.90;;;;;;4991583;28;20033;-54
2022/06/03 04:13:52;;;;;;;3.38;1.10;;;23.50;99.90;;;;;;4987438;28;20049;-54
2022/06/03 04:16:35;;;;;;;2.97;1.13;;;23.50;99.90;;;;;;4989427;28;20165;-54
2022/06/03 04:19:13;;;;;;;6.15;1.27;;;23.60;99.90;;;;;;4990560;28;20410;-54
2022/06/03 04:22:16;;;;;;;8.50;1.75;;;23.70;99.90;;;;;;4991271;28;20030;-54
2022/06/03 04:24:59;;;;;;;5.47;1.25;;;23.80;99.90;;;;;;4990305;28;20117;-54
2022/06/03 04:27:28;;;;;;;6.90;2.47;;;23.90;99.90;;;;;;4991366;28;20070;-54
2022/06/03 04:30:37;;;;;;;8.57;2.05;;;23.90;99.90;;;;;;4991792;28;20038;-55
2022/06/03 04:33:40;;;;;;;5.03;1.33;;;24.00;99.90;;;;;;4991693;28;20082;-54
2022/06/03 04:36:54;;;;;;;7.85;1.10;;;24.10;99.90;;;;;;4991369;28;20505;-55
2022/06/03 04:39:47;;;;;;;6.70;1.67;;;24.10;99.90;;;;;;4987635;28;20054;-55
2022/06/03 04:42:51;;;;;;;5.38;1.50;;;24.20;99.90;;;;;;4991423;28;20026;-55
2022/06/03 04:45:50;;;;;;;8.93;1.42;;;24.20;99.90;;;;;;4991407;28;20018;-55
2022/06/03 04:48:57;;;;;;;4.03;1.27;;;24.20;99.90;;;;;;4991695;28;20022;-55
2022/06/03 04:51:33;;;;;;;6.95;1.30;;;24.30;99.90;;;;;;4968840;28;20045;-54
2022/06/03 04:54:50;;;;;;;9.05;1.58;;;24.30;99.90;;;;;;4991476;28;20433;-55
2022/06/03 04:57:24;;;;;;;;;;;24.30;99.90;;;;;;4991634;28;20415;-54
2022/06/03 05:00:02;;;;;;;6.03;1.90;;;24.30;99.90;;;;;;4991184;28;20072;-54
2022/06/03 05:03:05;;;;;;;13.02;1.40;;;24.30;99.90;;;;;;4991353;28;20437;-56
2022/06/03 05:05:56;;;;;;;4.82;1.77;;;24.30;99.90;;;;;;4991351;28;20375;-55
2022/06/03 05:08:48;;;;;;;5.78;1.77;;;24.40;99.90;;;;;;4991333;28;20021;-55
2022/06/03 05:11:39;;;;;;;4.10;1.63;;;24.40;99.90;;;;;;4989229;28;20030;-55
2022/06/03 05:14:35;;;;;;;7.30;1.65;;;24.30;99.90;;;;;;4991181;28;20392;-55
2022/06/03 05:17:23;;;;;;;3.88;1.50;;;24.40;99.90;;;;;;4991116;28;20034;-55
2022/06/03 05:19:54;;;;;;;;;;;24.40;99.90;;;;;;4991631;28;20018;-55
2022/06/03 05:23:03;;;;;;;5.70;1.33;;;24.40;99.90;;;;;;4990988;28;20040;-54
2022/06/03 05:25:54;;;;;;;5.75;1.40;;;24.40;99.90;;;;;;4961705;28;20042;-55
2022/06/03 05:28:50;;;;;;;6.80;1.75;;;24.40;99.90;;;;;;4980258;28;20085;-54
2022/06/03 05:31:35;;;;;;;4.57;1.70;;;24.40;99.90;;;;;;4977521;28;20426;-54
2022/06/03 05:34:10;;;;;;;5.70;3.00;;;24.40;99.90;;;;;;4994551;28;20423;-54
2022/06/03 05:36:45;;;;;;;7.45;2.35;;;24.40;99.90;;;;;;4994088;28;20070;-54
2022/06/03 05:39:40;;;;;;;9.25;3.15;;;24.40;99.90;;;;;;4994356;28;20359;-53
2022/06/03 05:42:24;;;;;;;4.93;1.23;;;24.40;99.90;;;;;;4979399;28;20035;-55
2022/06/03 05:45:31;;;;;;;9.55;1.65;;;24.40;99.90;;;;;;4994188;28;20113;-55
2022/06/03 05:48:00;;;;;;;6.05;1.95;;;24.30;99.90;;;;;;4992546;28;20039;-55
2022/06/03 05:50:37;;;;;;;8.20;3.13;;;24.40;99.90;;;;;;4994313;28;20033;-55
2022/06/03 05:53:21;;;;;;;;;;;24.40;99.90;;;;;;4994558;28;20093;-56
2022/06/03 05:56:22;;;;;;;4.95;2.10;;;24.40;99.90;;;;;;4994020;28;19999;-55
2022/06/03 05:59:16;;;;;;;4.22;2.00;;;24.40;99.90;;;;;;4981926;28;20083;-56
2022/06/03 06:02:06;;;;;;;9.77;4.55;;;24.40;99.90;;;;;;4993714;28;20050;-55
2022/06/03 06:04:34;;;;;;;13.13;4.10;;;24.40;99.90;;;;;;4994152;28;20030;-55
2022/06/03 06:07:07;;;;;;;4.25;2.08;;;24.50;99.90;;;;;;4994065;28;20390;-55
2022/06/03 06:09:36;;;;;;;12.73;2.63;;;24.50;99.90;;;;;;4993989;28;20018;-55
2022/06/03 06:12:16;;;;;;;8.50;3.28;;;24.50;99.90;;;;;;4993995;28;20381;-55
2022/06/03 06:15:33;;;;;;;11.05;2.95;;;24.50;99.90;;;;;;4992572;28;20026;-56
2022/06/03 06:17:58;;;;;;;;;;;24.50;99.90;;;;;;4971810;28;20450;-55
2022/06/03 06:20:45;;;;;;;4.93;2.75;;;24.60;99.90;;;;;;4993524;28;19918;-55
2022/06/03 06:23:41;;;;;;;8.80;2.60;;;24.50;99.90;;;;;;4993669;28;20478;-54
2022/06/03 06:26:35;;;;;;;6.15;2.53;;;24.50;99.90;;;;;;4993639;28;20116;-54
2022/06/03 06:29:12;;;;;;;7.22;3.13;;;24.50;99.90;;;;;;4993686;28;20026;-54
2022/06/03 06:31:57;;;;;;;7.07;2.58;;;24.60;99.90;;;;;;4993478;28;20192;-55
2022/06/03 06:34:47;;;;;;;8.65;2.88;;;24.60;99.90;;;;;;4993353;28;20417;-54
2022/06/03 06:37:38;;;;;;;10.10;4.18;;;24.60;99.90;;;;;;4992345;28;20037;-53
2022/06/03 06:40:11;;;;;;;10.88;3.42;;;24.60;99.90;;;;;;4988570;28;20048;-54
2022/06/03 06:42:56;;;;;;;10.63;5.60;;;24.70;99.90;;;;;;4993328;28;20033;-53
2022/06/03 06:45:29;;;;;;;12.23;2.58;;;24.70;99.90;;;;;;4993122;28;20471;-54
2022/06/03 06:48:18;;;;;;;7.70;2.53;;;24.70;99.90;;;;;;4993010;28;20114;-53
2022/06/03 06:50:46;;;;;;;7.22;2.90;;;24.70;99.90;;;;;;4993044;28;20023;-53
2022/06/03 06:53:15;;;;;;;10.88;4.70;;;24.70;99.90;;;;;;4979839;28;20026;-53
2022/06/03 06:55:55;;;;;;;11.27;3.70;;;24.80;99.90;;;;;;4992930;28;20497;-54
2022/06/03 06:58:43;;;;;;;11.38;3.38;;;24.70;99.90;;;;;;4992748;28;20034;-54
2022/06/03 07:01:12;;;;;;;6.75;3.13;;;24.70;99.90;;;;;;4992714;28;20046;-54
2022/06/03 07:03:59;;;;;;;8.98;3.53;;;24.80;99.90;;;;;;4992759;28;20026;-54
2022/06/03 07:06:43;;;;;;;9.45;2.70;;;24.80;99.90;;;;;;4992733;28;20537;-54
2022/06/03 07:09:38;;;;;;;6.93;2.78;;;24.80;99.90;;;;;;4983655;28;20427;-54
2022/06/03 07:12:25;;;;;;;11.63;2.90;;;24.80;99.90;;;;;;4991162;28;20026;-54
2022/06/03 07:15:01;;;;;;;4.82;2.47;;;24.90;99.90;;;;;;4992521;28;20434;-54
2022/06/03 07:21:11;;;;;;;6.07;2.70;;;24.90;99.90;;;;;;4992788;28;20374;-54
2022/06/03 07:23:53;;;;;;;7.38;2.45;;;25.00;99.90;;;;;;4991476;28;20038;-54
2022/06/03 07:26:33;;;;;;;7.07;3.22;;;25.00;99.90;;;;;;4992247;28;20022;-54
2022/06/03 07:29:29;;;;;;;10.63;3.58;;;24.90;99.90;;;;;;4992352;28;20109;-54
2022/06/03 07:32:33;;;;;;;8.68;2.58;;;25.00;99.90;;;;;;4992261;28;20106;-54
2022/06/03 07:35:33;;;;;;;10.23;2.70;;;25.00;99.90;;;;;;4983180;28;20042;-54
2022/06/03 07:38:15;;;;;;;7.32;2.75;;;25.00;99.90;;;;;;4971916;28;20035;-54
2022/06/03 07:41:28;;;;;;;10.75;3.58;;;25.00;99.90;;;;;;4992208;28;20019;-54
2022/06/03 07:44:00;;;;;;;10.60;3.13;;;25.10;99.90;;;;;;4961091;28;20125;-54
2022/06/03 07:46:43;;;;;;;7.65;2.45;;;25.10;99.90;;;;;;4991990;28;20037;-55
2022/06/03 07:49:10;;;;;;;10.30;2.63;;;25.10;99.90;;;;;;4991771;28;20061;-54
2022/06/03 07:51:46;;;;;;;13.02;3.97;;;25.00;99.90;;;;;;4992194;28;20034;-55
2022/06/03 07:54:19;;;;;;;13.68;2.67;;;25.00;99.90;;;;;;4991813;28;20076;-55
2022/06/03 07:56:45;;;;;;;7.47;2.55;;;24.90;99.90;;;;;;4991922;28;20041;-56
2022/06/03 07:59:18;;;;;;;10.48;2.67;;;24.80;99.90;;;;;;4991905;28;20034;-56
2022/06/03 08:01:56;;;;;;;4.68;1.70;;;24.70;99.90;;;;;;4991957;28;20054;-55
2022/06/03 08:04:59;;;;;;;7.38;2.13;;;24.60;99.90;;;;;;4991786;28;20027;-56
2022/06/03 08:13:17;;;;;;;8.70;3.95;;;24.40;99.90;;;;;;4991880;28;20390;-55
2022/06/03 08:16:02;;;;;;;10.45;2.30;;;24.30;99.90;;;;;;4991566;28;20030;-54
2022/06/03 08:18:40;;;;;;;8.90;2.42;;;24.20;99.90;;;;;;4991767;28;20409;-54
2022/06/03 08:21:15;;;;;;;6.05;1.52;;;24.20;99.90;;;;;;4991980;28;20478;-54
2022/06/03 08:23:44;;;;;;;6.53;1.83;;;24.20;99.90;;;;;;4991684;28;20030;-55
2022/06/03 08:26:16;;;;;;;8.23;1.77;;;24.20;99.90;;;;;;4991756;28;20605;-55
2022/06/03 08:28:52;;;;;;;9.02;3.45;;;24.20;99.90;;;;;;4991598;28;20502;-55
2022/06/03 08:31:23;;;;;;;11.20;2.17;;;24.20;99.90;;;;;;4991467;28;20025;-55
2022/06/03 08:33:58;;;;;;;5.47;2.00;;;24.20;99.90;;;;;;4991463;28;20382;-55
2022/06/03 08:36:29;;;;;;;6.30;1.50;;;24.30;99.90;;;;;;4991388;28;20039;-58
2022/06/03 08:39:06;;;;;;;7.55;1.48;;;24.30;99.90;;;;;;4991380;28;20054;-55
2022/06/03 08:42:08;;;;;;;6.88;1.80;;;24.30;99.90;;;;;;4991353;28;20026;-54
2022/06/03 08:45:03;;;;;;;9.82;2.15;;;24.30;99.90;;;;;;4991437;28;20037;-55
2022/06/03 08:47:53;;;;;;;6.75;1.50;;;24.20;99.90;;;;;;4991404;28;20033;-55
2022/06/03 08:50:27;;;;;;;9.88;2.22;;;24.20;99.90;;;;;;4991271;28;20024;-54
2022/06/03 08:52:56;;;;;;;12.88;2.67;;;24.20;99.90;;;;;;4991383;28;20037;-55
2022/06/03 08:55:37;;;;;;;6.50;1.70;;;24.20;99.90;;;;;;4991142;28;20026;-55
2022/06/03 08:58:27;;;;;;;4.97;1.55;;;24.20;99.90;;;;;;4991255;28;20133;-54
2022/06/03 09:01:13;;;;;;;11.65;2.65;;;24.20;99.90;;;;;;4991875;28;20388;-54
2022/06/03 09:03:53;;;;;;;6.00;2.40;;;24.30;99.90;;;;;;4995027;28;20427;-54
2022/06/03 09:06:35;;;;;;;8.93;2.03;;;24.30;99.90;;;;;;4979881;28;20078;-54
2022/06/03 09:09:08;;;;;;;9.80;3.80;;;24.30;99.90;;;;;;4995016;28;20022;-55
2022/06/03 09:12:03;;;;;;;6.88;2.47;;;24.40;99.90;;;;;;4994667;28;20034;-55
2022/06/03 09:14:29;;;;;;;5.53;1.45;;;24.50;99.90;;;;;;4994771;28;20018;-55
2022/06/03 09:17:03;;;;;;;10.15;2.03;;;24.50;99.90;;;;;;4994645;28;20486;-54
2022/06/03 09:19:39;;;;;;;13.80;1.77;;;24.50;99.90;;;;;;4994703;28;20086;-54
2022/06/03 09:22:18;;;;;;;6.80;1.85;;;24.50;99.90;;;;;;4991603;28;20984;-55
2022/06/03 09:24:44;;;;;;;11.57;1.85;;;24.50;99.90;;;;;;4994795;28;20359;-55
2022/06/03 09:27:13;;;;;;;5.60;1.50;;;24.50;99.90;;;;;;4994734;28;20430;-54
2022/06/03 09:29:44;;;;;;;8.77;1.70;;;24.50;99.90;;;;;;4980939;28;20063;-53
2022/06/03 09:32:10;;;;;;;8.38;1.63;;;24.50;99.90;;;;;;4994310;28;20026;-53
2022/06/03 09:35:11;;;;;;;8.20;1.80;;;24.50;99.90;;;;;;4992869;28;20034;-53
2022/06/03 09:37:43;;;;;;;4.88;1.42;;;24.50;99.90;;;;;;4972497;28;20042;-53
2022/06/03 09:40:16;;;;;;;7.05;1.80;;;24.50;99.90;;;;;;4994348;28;20109;-54
2022/06/03 09:42:53;;;;;;;4.68;1.60;;;24.50;99.90;;;;;;4994511;28;20040;-54
2022/06/03 09:45:20;;;;;;;9.03;1.73;;;24.50;99.90;;;;;;4994314;28;20119;-55
2022/06/03 09:47:48;;;;;;;6.80;2.20;;;24.50;99.90;;;;;;4994345;28;20370;-55
2022/06/03 09:50:17;;;;;;;9.38;4.03;;;24.50;99.90;;;;;;4994197;28;20378;-54
2022/06/03 09:52:44;;;;;;;7.95;5.45;;;24.50;99.90;;;;;;4994335;28;20015;-54
2022/06/03 09:55:30;;;;;;;12.65;6.63;;;24.60;99.90;;;;;;4994294;28;20105;-55
2022/06/03 09:57:59;;;;;;;9.07;3.72;;;24.60;99.90;;;;;;4992697;28;20034;-54
2022/06/03 10:00:30;;;;;;;10.98;6.07;;;24.60;99.90;;;;;;4994029;28;20425;-55
2022/06/03 10:02:58;;;;;;;9.18;4.40;;;24.60;99.90;;;;;;4993915;28;20026;-55
2022/06/03 10:05:23;;;;;;;;;;;24.70;99.90;;;;;;4994329;28;20030;-54
2022/06/03 10:07:59;;;;;;;10.75;3.90;;;24.70;99.90;;;;;;4993867;28;19912;-54
2022/06/03 10:13:10;;;;;;;9.10;4.50;;;24.70;99.90;;;;;;4981810;28;20092;-54
2022/06/03 10:15:53;;;;;;;12.15;5.43;;;24.70;99.90;;;;;;4993672;28;20029;-53
2022/06/03 10:18:42;;;;;;;6.00;3.20;;;24.80;99.90;;;;;;4993388;28;20084;-53
2022/06/03 10:21:08;;;;;;;9.82;3.85;;;24.90;99.90;;;;;;4993554;28;20072;-53
2022/06/03 10:23:41;;;;;;;10.05;2.83;;;24.90;99.90;;;;;;4993150;28;20498;-53
2022/06/03 10:26:07;;;;;;;14.45;5.75;;;24.90;99.90;;;;;;4993318;28;20470;-54
2022/06/03 10:28:39;;;;;;;12.77;4.93;;;25.00;99.90;;;;;;4993036;28;20019;-54
2022/06/03 10:31:16;;;;;;;8.00;3.85;;;25.00;99.90;;;;;;4993277;28;20022;-54
2022/06/03 10:33:57;;;;;;;10.45;2.67;;;25.00;99.90;;;;;;4993169;28;20474;-55
2022/06/03 10:36:38;;;;;;;9.32;3.35;;;25.10;99.90;;;;;;4992898;28;20045;-55
2022/06/03 10:39:06;;;;;;;12.38;2.88;;;25.10;99.90;;;;;;4993297;28;20053;-55
2022/06/03 10:41:40;;;;;;;15.18;2.90;;;25.10;99.90;;;;;;4993297;28;20518;-55
2022/06/03 10:44:33;;;;;;;8.70;2.28;;;25.10;99.90;;;;;;4993367;28;20030;-55
2022/06/03 10:47:04;;;;;;;10.43;2.58;;;25.10;99.90;;;;;;4976250;28;20031;-55
2022/06/03 10:49:35;;;;;;;12.57;2.90;;;25.10;99.90;;;;;;4993218;28;20351;-55
2022/06/03 11:03:31;;;;;;;4.83;1.97;;;25.20;99.90;;;;;;4993140;28;20085;-56
2022/06/03 11:05:57;;;;;;;6.32;2.20;;;25.20;99.90;;;;;;4992709;28;20026;-56
2022/06/03 11:08:23;;;;;;;5.40;1.65;;;25.30;99.90;;;;;;4992735;28;20028;-55
2022/06/03 11:10:55;;;;;;;6.68;2.42;;;25.20;99.90;;;;;;4992930;28;20026;-55
2022/06/03 11:13:29;;;;;;;9.18;2.70;;;25.30;99.90;;;;;;4992766;28;20030;-55
2022/06/03 11:15:58;;;;;;;9.38;3.00;;;25.30;99.90;;;;;;4992812;28;20022;-54
2022/06/03 11:18:34;;;;;;;8.50;3.47;;;25.30;99.90;;;;;;4992507;28;20490;-55
2022/06/03 11:21:26;;;;;;;12.82;6.88;;;25.30;99.90;;;;;;4992456;28;20447;-55
2022/06/03 11:23:55;;;;;;;9.68;4.50;;;25.30;99.90;;;;;;4992016;28;20026;-55
2022/06/03 11:26:25;;;;;;;13.23;5.88;;;25.20;99.90;;;;;;4992600;28;20020;-55
2022/06/03 11:29:00;;;;;;;10.32;5.93;;;25.20;99.90;;;;;;4992502;28;20406;-55
2022/06/03 11:31:31;;;;;;;18.15;5.22;;;25.20;99.90;;;;;;4991974;28;20454;-55
2022/06/03 11:34:22;;;;;;;17.38;6.57;;;25.20;99.90;;;;;;4992110;28;20030;-55
2022/06/03 11:37:08;;;;;;;13.27;4.75;;;25.10;99.90;;;;;;4984468;28;20057;-55
2022/06/03 11:39:37;;;;;;;17.88;5.28;;;25.10;99.90;;;;;;4992149;28;20054;-54
2022/06/03 11:42:15;;;;;;;12.80;5.25;;;25.10;99.90;;;;;;4991916;28;20034;-54
2022/06/03 11:44:50;;;;;;;11.13;5.55;;;25.10;99.90;;;;;;4992105;28;20068;-55
2022/06/03 11:47:25;;;;;;;11.05;3.72;;;25.10;99.90;;;;;;4991858;28;20434;-54
2022/06/03 11:49:53;;;;;;;10.98;2.88;;;25.10;99.90;;;;;;4992281;28;20022;-55
2022/06/03 11:52:21;;;;;;;9.82;3.03;;;25.20;99.90;;;;;;4991990;28;20545;-54
2022/06/03 11:54:48;;;;;;;9.25;2.42;;;25.20;99.90;;;;;;4989321;28;20027;-55
2022/06/03 11:57:14;;;;;;;13.67;3.70;;;25.20;99.90;;;;;;4987714;28;20038;-55
2022/06/03 11:59:52;;;;;;;6.15;1.90;;;25.20;99.90;;;;;;4991302;28;20156;-54
2022/06/03 12:02:24;;;;;;;9.63;3.15;;;25.20;99.90;;;;;;4991335;28;20053;-55
2022/06/03 12:05:01;;;;;;;7.32;3.08;;;25.20;99.90;;;;;;4991469;28;20494;-55
2022/06/03 12:07:42;;;;;;;;;;;25.20;99.90;;;;;;4991554;28;20037;-55
2022/06/03 12:10:23;;;;;;;6.95;2.78;;;25.20;99.90;;;;;;4991262;28;19905;-55
2022/06/03 12:13:15;;;;;;;7.38;2.30;;;25.30;99.90;;;;;;4987029;28;20072;-54
2022/06/03 12:15:53;;;;;;;10.25;2.85;;;25.30;99.90;;;;;;4978953;28;20519;-54
2022/06/03 12:18:39;;;;;;;9.13;2.30;;;25.30;99.90;;;;;;4991923;28;20387;-53
2022/06/03 12:21:14;;;;;;;11.00;2.53;;;25.30;99.90;;;;;;4990633;28;20037;-56
2022/06/03 12:23:42;;;;;;;8.23;2.05;;;25.30;99.90;;;;;;4985812;28;20031;-55
2022/06/03 12:26:37;;;;;;;10.10;2.75;;;25.40;99.90;;;;;;4987667;28;20125;-55
2022/06/03 12:29:28;;;;;;;8.52;2.63;;;25.50;99.90;;;;;;4961640;28;20038;-55
2022/06/03 12:31:55;;;;;;;6.85;2.90;;;25.50;99.90;;;;;;4991162;28;20034;-55
2022/06/03 12:34:26;;;;;;;9.73;3.28;;;25.60;99.90;;;;;;4988921;28;20382;-55
2022/06/03 12:37:14;;;;;;;11.57;4.82;;;25.60;99.90;;;;;;4995260;28;20038;-55
2022/06/03 12:40:19;;;;;;;8.07;3.67;;;25.50;99.90;;;;;;4978184;28;20045;-53
2022/06/03 12:42:45;;;;;;;11.73;3.35;;;25.60;99.90;;;;;;4989821;28;20045;-54
2022/06/03 12:45:13;;;;;;;12.13;3.15;;;25.50;99.90;;;;;;4982290;28;20011;-54
2022/06/03 12:47:49;;;;;;;9.73;3.67;;;25.50;99.90;;;;;;4994993;28;20022;-52
2022/06/03 12:50:23;;;;;;;10.80;4.25;;;25.40;99.90;;;;;;4981674;28;20026;-52
2022/06/03 12:52:53;;;;;;;10.23;3.90;;;25.30;99.90;;;;;;4995140;28;20395;-54
2022/06/03 12:55:26;;;;;;;10.65;5.13;;;25.20;99.90;;;;;;4994832;28;20287;-53
2022/06/03 12:58:17;;;;;;;17.70;10.18;;;25.10;99.90;;;;;;4994966;28;20035;-52
2022/06/03 13:00:53;;;;;;;27.60;15.77;;;25.00;99.90;;;;;;4975398;28;20401;-52
2022/06/03 13:03:25;;;;;;;21.48;13.00;;;25.00;99.90;;;;;;4992953;28;20432;-54
2022/06/03 13:05:56;;;;;;;9.85;4.90;;;25.00;99.90;;;;;;4994739;28;20030;-52
2022/06/03 13:08:28;;;;;;;12.07;4.45;;;24.90;99.90;;;;;;4985828;28;20038;-52
2022/06/03 13:11:00;;;;;;;14.27;3.65;;;24.80;99.90;;;;;;4992190;28;20041;-51
2022/06/03 13:13:34;;;;;;;7.03;2.72;;;24.80;99.90;;;;;;4990840;28;20034;-51
2022/06/03 13:16:15;;;;;;;12.35;3.47;;;24.80;99.90;;;;;;4992370;28;20027;-53
2022/06/03 13:18:44;;;;;;;11.60;3.42;;;24.80;99.90;;;;;;4981542;28;20031;-52
2022/06/03 13:21:10;;;;;;;10.57;3.10;;;24.80;99.90;;;;;;4987907;28;20057;-51
2022/06/03 13:24:00;;;;;;;13.95;3.25;;;24.80;99.90;;;;;;4991935;28;20505;-52
2022/06/03 13:26:27;;;;;;;10.68;3.75;;;24.80;99.90;;;;;;4983100;28;20022;-52
2022/06/03 13:28:55;;;;;;;10.65;5.05;;;24.80;99.90;;;;;;4992055;28;20431;-54
2022/06/03 13:31:41;;;;;;;10.43;3.95;;;24.70;99.90;;;;;;4993088;28;20045;-53
2022/06/03 13:34:12;;;;;;;10.60;3.65;;;24.70;99.90;;;;;;4983123;28;20062;-51
2022/06/03 13:36:39;;;;;;;14.75;3.58;;;24.70;99.90;;;;;;4994112;28;20030;-54
2022/06/03 13:39:10;;;;;;;13.15;3.67;;;24.70;99.90;;;;;;4989820;28;20023;-54
2022/06/03 13:44:48;;;;;;;12.93;3.45;;;24.70;99.90;;;;;;4991806;28;20033;-54
2022/06/03 13:47:22;;;;;;;12.70;3.15;;;24.70;99.90;;;;;;4992074;28;20035;-53
2022/06/03 13:50:18;;;;;;;8.20;3.00;;;24.70;99.90;;;;;;4993549;28;20402;-55
2022/06/03 13:52:51;;;;;;;14.00;4.73;;;24.60;99.90;;;;;;4981583;28;20398;-55
2022/06/03 13:55:21;;;;;;;13.82;3.60;;;24.60;99.90;;;;;;4982187;28;20296;-56
2022/06/03 13:58:06;;;;;;;10.30;2.80;;;24.70;99.90;;;;;;4986438;28;20395;-52
2022/06/03 14:00:50;;;;;;;11.80;2.58;;;24.70;99.90;;;;;;4993960;28;20038;-54
2022/06/03 14:03:31;;;;;;;10.70;3.17;;;24.70;99.90;;;;;;4987076;28;20034;-55
2022/06/03 14:06:15;;;;;;;12.10;2.47;;;24.70;99.90;;;;;;4993190;28;20027;-55
2022/06/03 14:08:41;;;;;;;13.60;2.80;;;24.70;99.90;;;;;;4992787;28;20549;-53
2022/06/03 14:11:18;;;;;;;9.40;3.03;;;24.60;99.90;;;;;;4991819;28;20027;-53
2022/06/03 14:14:06;;;;;;;9.88;1.83;;;24.70;99.90;;;;;;4990792;28;20022;-55
2022/06/03 14:16:48;;;;;;;11.20;2.28;;;24.70;99.90;;;;;;4991070;28;20047;-51
2022/06/03 14:19:36;;;;;;;8.18;1.80;;;24.60;99.90;;;;;;4990586;28;20077;-52
2022/06/03 14:22:12;;;;;;;10.27;2.25;;;24.60;99.90;;;;;;4991635;28;20029;-51
2022/06/03 14:24:44;;;;;;;10.13;2.70;;;24.60;99.90;;;;;;4993171;28;20022;-55
2022/06/03 14:27:43;;;;;;;8.80;2.35;;;24.60;99.90;;;;;;4991677;28;20030;-55
2022/06/03 14:30:20;;;;;;;13.30;2.75;;;24.50;99.90;;;;;;4939869;28;20117;-55